createdAt,value
2023-03-11T00:02:00.140Z,36.57
2023-03-11T00:04:26.659Z,36.53
2023-03-11T00:06:53.297Z,36.45
2023-03-11T00:09:21.075Z,36.52
2023-03-11T00:11:47.561Z,36.43
2023-03-11T00:14:14.044Z,36.56
2023-03-11T00:16:40.593Z,36.38
2023-03-11T00:19:07.125Z,36.60
2023-03-11T00:21:33.654Z,36.54
2023-03-11T00:24:00.170Z,36.53
2023-03-11T00:26:28.010Z,36.58
2023-03-11T00:28:54.746Z,36.73
2023-03-11T00:31:21.396Z,36.64
2023-03-11T00:33:47.944Z,36.47
2023-03-11T00:36:22.858Z,36.36
2023-03-11T00:38:49.515Z,36.52
2023-03-11T00:41:16.138Z,36.38
2023-03-11T00:43:43.928Z,36.45
2023-03-11T00:46:10.434Z,36.48
2023-03-11T00:48:37.105Z,36.43
2023-03-11T00:51:04.047Z,36.36
2023-03-11T00:53:30.531Z,36.68
2023-03-11T00:55:57.070Z,36.46
2023-03-11T00:58:23.543Z,36.58
2023-03-11T01:00:51.447Z,36.56
2023-03-11T01:03:18.015Z,36.42
2023-03-11T01:05:44.540Z,36.50
2023-03-11T01:08:11.010Z,36.48
2023-03-11T01:10:37.867Z,36.52
2023-03-11T01:13:04.928Z,36.35
2023-03-11T01:15:33.918Z,36.47
2023-03-11T01:18:02.147Z,36.46
2023-03-11T01:20:29.263Z,36.40
2023-03-11T01:22:56.154Z,36.52
2023-03-11T01:25:24.081Z,36.49
2023-03-11T01:27:51.092Z,36.43
2023-03-11T01:30:19.981Z,36.36
2023-03-11T01:32:46.810Z,36.49
2023-03-11T01:35:16.751Z,36.53
2023-03-11T01:37:43.896Z,36.47
2023-03-11T01:40:16.896Z,36.12
2023-03-11T01:42:43.491Z,36.45
2023-03-11T01:45:29.050Z,36.38
2023-03-11T01:47:55.724Z,36.42
2023-03-11T01:50:25.648Z,36.47
2023-03-11T01:52:52.226Z,36.36
2023-03-11T01:55:19.636Z,36.30
2023-03-11T01:57:47.641Z,36.26
2023-03-11T02:00:15.094Z,36.36
2023-03-11T02:02:45.627Z,36.13
2023-03-11T02:05:12.568Z,36.15
2023-03-11T02:07:40.878Z,36.32
2023-03-11T02:10:08.401Z,36.23
2023-03-11T02:12:37.305Z,36.51
2023-03-11T02:15:07.015Z,36.17
2023-03-11T02:17:34.993Z,36.19
2023-03-11T02:20:14.282Z,36.28
2023-03-11T02:22:43.485Z,36.18
2023-03-11T02:25:18.382Z,36.24
2023-03-11T02:27:49.756Z,36.05
2023-03-11T02:30:17.343Z,35.93
2023-03-11T02:32:46.123Z,36.18
2023-03-11T02:35:12.737Z,36.22
2023-03-11T02:37:44.831Z,36.30
2023-03-11T02:40:33.870Z,36.33
2023-03-11T02:43:05.673Z,36.12
2023-03-11T02:45:33.124Z,36.40
2023-03-11T02:48:00.741Z,36.20
2023-03-11T02:50:29.784Z,36.21
2023-03-11T02:52:56.604Z,36.08
2023-03-11T02:55:23.407Z,36.17
2023-03-11T02:57:49.976Z,36.06
2023-03-11T03:00:19.386Z,36.12
2023-03-11T03:02:45.957Z,36.15
2023-03-11T03:05:13.433Z,36.25
2023-03-11T03:07:39.962Z,36.00
2023-03-11T03:10:09.119Z,36.24
2023-03-11T03:12:35.610Z,36.12
2023-03-11T03:15:02.118Z,36.11
2023-03-11T03:17:29.965Z,36.02
2023-03-11T03:19:56.530Z,36.04
2023-03-11T03:22:23.052Z,35.89
2023-03-11T03:24:49.521Z,36.11
2023-03-11T03:27:16.098Z,36.03
2023-03-11T03:29:42.690Z,36.11
2023-03-11T03:32:09.264Z,35.98
2023-03-11T03:34:37.095Z,36.00
2023-03-11T03:37:03.672Z,35.92
2023-03-11T03:39:32.600Z,35.88
2023-03-11T03:41:59.184Z,35.95
2023-03-11T03:44:26.380Z,36.00
2023-03-11T03:46:52.845Z,35.89
2023-03-11T03:49:19.374Z,35.88
2023-03-11T03:51:47.271Z,35.93
2023-03-11T03:54:14.910Z,35.94
2023-03-11T03:56:41.436Z,35.96
2023-03-11T03:59:07.950Z,35.78
2023-03-11T04:01:34.457Z,35.87
2023-03-11T04:04:01.046Z,35.94
2023-03-11T04:06:28.099Z,35.77
2023-03-11T04:08:56.399Z,35.75
2023-03-11T04:11:23.111Z,35.83
2023-03-11T04:13:49.778Z,35.88
2023-03-11T04:16:19.069Z,35.95
2023-03-11T04:18:46.024Z,35.80
2023-03-11T04:21:12.531Z,35.91
2023-03-11T04:23:39.143Z,35.85
2023-03-11T04:26:07.023Z,35.82
2023-03-11T04:28:33.545Z,35.85
2023-03-11T04:31:00.164Z,35.79
2023-03-11T04:33:26.724Z,35.76
2023-03-11T04:35:53.311Z,35.76
2023-03-11T04:38:19.831Z,35.75
2023-03-11T04:40:46.374Z,35.72
2023-03-11T04:43:14.345Z,35.71
2023-03-11T04:45:41.342Z,35.77
2023-03-11T04:48:08.112Z,35.67
2023-03-11T04:50:34.805Z,35.72
2023-03-11T04:53:01.336Z,35.76
2023-03-11T04:55:27.934Z,35.67
2023-03-11T04:57:54.415Z,35.54
2023-03-11T05:00:22.633Z,35.54
2023-03-11T05:02:49.199Z,35.64
2023-03-11T05:05:15.745Z,35.71
2023-03-11T05:07:42.504Z,35.79
2023-03-11T05:10:10.022Z,35.81
2023-03-11T05:12:36.581Z,35.50
2023-03-11T05:15:03.257Z,35.52
2023-03-11T05:17:31.266Z,35.65
2023-03-11T05:19:57.792Z,35.79
2023-03-11T05:22:24.433Z,35.63
2023-03-11T05:24:50.939Z,35.91
2023-03-11T05:27:17.491Z,35.70
2023-03-11T05:29:44.348Z,35.43
2023-03-11T05:32:11.555Z,35.90
2023-03-11T05:34:39.682Z,35.59
2023-03-11T05:37:06.666Z,35.88
2023-03-11T05:39:33.593Z,35.56
2023-03-11T05:42:00.952Z,35.56
2023-03-11T05:44:27.748Z,35.49
2023-03-11T05:46:54.707Z,35.67
2023-03-11T05:49:21.633Z,35.92
2023-03-11T05:51:50.043Z,35.59
2023-03-11T05:54:16.962Z,35.60
2023-03-11T05:56:44.910Z,35.51
2023-03-11T05:59:15.076Z,35.74
2023-03-11T06:01:43.709Z,35.33
2023-03-11T06:04:11.021Z,35.83
2023-03-11T06:06:39.208Z,35.61
2023-03-11T06:09:07.034Z,35.60
2023-03-11T06:11:33.538Z,35.65
2023-03-11T06:14:00.097Z,35.49
2023-03-11T06:16:26.774Z,35.58
2023-03-11T06:18:53.311Z,35.49
2023-03-11T06:21:22.673Z,35.46
2023-03-11T06:23:49.550Z,35.52
2023-03-11T06:26:19.983Z,35.52
2023-03-11T06:28:47.906Z,35.30
2023-03-11T06:31:16.703Z,35.50
2023-03-11T06:33:44.051Z,35.61
2023-03-11T06:36:12.762Z,35.53
2023-03-11T06:38:39.683Z,35.63
2023-03-11T06:41:07.075Z,35.69
2023-03-11T06:43:35.610Z,35.44
2023-03-11T06:46:03.215Z,35.54
2023-03-11T06:48:29.706Z,35.70
2023-03-11T06:50:57.459Z,35.44
2023-03-11T06:53:24.621Z,35.43
2023-03-11T06:56:00.419Z,35.62
2023-03-11T06:58:27.462Z,35.52
2023-03-11T07:00:55.328Z,35.48
2023-03-11T07:03:21.955Z,35.61
2023-03-11T07:05:50.896Z,35.51
2023-03-11T07:08:17.762Z,35.43
2023-03-11T07:10:44.333Z,35.57
2023-03-11T07:13:10.879Z,35.66
2023-03-11T07:15:37.362Z,35.57
2023-03-11T07:18:05.317Z,35.62
2023-03-11T07:20:31.876Z,35.57
2023-03-11T07:22:58.379Z,35.72
2023-03-11T07:25:24.988Z,35.69
2023-03-11T07:27:51.492Z,35.45
2023-03-11T07:30:18.368Z,35.64
2023-03-11T07:32:44.957Z,35.63
2023-03-11T07:35:12.815Z,35.47
2023-03-11T07:37:39.328Z,35.48
2023-03-11T07:40:06.761Z,35.51
2023-03-11T07:42:33.890Z,35.49
2023-03-11T07:45:00.395Z,35.59
2023-03-11T07:47:26.968Z,35.68
2023-03-11T07:49:55.171Z,35.67
2023-03-11T07:52:24.159Z,35.52
2023-03-11T07:54:50.722Z,35.55
2023-03-11T07:57:17.373Z,35.58
2023-03-11T07:59:43.937Z,35.74
2023-03-11T08:02:10.576Z,35.65
2023-03-11T08:04:37.104Z,35.58
2023-03-11T08:07:03.813Z,35.63
2023-03-11T08:09:31.607Z,35.67
2023-03-11T08:11:58.101Z,35.54
2023-03-11T08:14:24.595Z,35.64
2023-03-11T08:16:51.114Z,35.69
2023-03-11T08:19:17.688Z,35.68
2023-03-11T08:21:44.288Z,35.65
2023-03-11T08:24:12.728Z,35.67
2023-03-11T08:26:41.007Z,35.65
2023-03-11T08:29:07.682Z,35.50
2023-03-11T08:31:34.845Z,35.55
2023-03-11T08:34:04.258Z,35.51
2023-03-11T08:36:31.930Z,35.76
2023-03-11T08:38:58.943Z,36.06
2023-03-11T08:41:26.031Z,35.71
2023-03-11T08:43:54.010Z,35.71
2023-03-11T08:46:25.596Z,35.76
2023-03-11T08:48:52.409Z,35.58
2023-03-11T08:51:19.950Z,35.75
2023-03-11T08:53:47.073Z,35.77
2023-03-11T08:56:13.647Z,35.79
2023-03-11T08:58:40.109Z,35.74
2023-03-11T09:01:08.660Z,35.74
2023-03-11T09:03:35.869Z,35.84
2023-03-11T09:06:04.466Z,35.83
2023-03-11T09:08:31.192Z,35.72
2023-03-11T09:10:57.828Z,35.83
2023-03-11T09:13:24.389Z,35.75
2023-03-11T09:15:51.644Z,35.93
2023-03-11T09:18:20.264Z,35.76
2023-03-11T09:20:47.135Z,35.61
2023-03-11T09:23:15.856Z,35.79
2023-03-11T09:25:42.537Z,35.68
2023-03-11T09:28:09.412Z,35.88
2023-03-11T09:30:35.971Z,35.90
2023-03-11T09:33:02.615Z,35.81
2023-03-11T09:35:30.503Z,35.98
2023-03-11T09:37:57.036Z,35.81
2023-03-11T09:40:27.846Z,35.88
2023-03-11T09:43:10.704Z,35.90
2023-03-11T09:45:45.935Z,35.74
2023-03-11T09:48:22.970Z,35.91
2023-03-11T09:50:55.432Z,35.86
2023-03-11T09:53:29.569Z,35.97
2023-03-11T09:55:58.603Z,36.01
2023-03-11T09:58:36.150Z,36.17
2023-03-11T10:01:03.231Z,35.91
2023-03-11T10:03:36.793Z,35.94
2023-03-11T10:06:17.252Z,35.82
2023-03-11T10:08:47.278Z,35.97
2023-03-11T10:11:29.139Z,35.92
2023-03-11T10:14:08.068Z,35.66
2023-03-11T10:16:41.396Z,36.06
2023-03-11T10:19:15.677Z,35.92
2023-03-11T10:21:52.858Z,36.11
2023-03-11T10:24:37.964Z,36.07
2023-03-11T10:27:11.387Z,35.98
2023-03-11T10:29:47.096Z,36.06
2023-03-11T10:32:17.372Z,36.14
2023-03-11T10:34:49.663Z,36.08
2023-03-11T10:37:23.183Z,36.14
2023-03-11T10:39:51.240Z,36.17
2023-03-11T10:42:22.454Z,36.15
2023-03-11T10:44:51.048Z,36.08
2023-03-11T10:47:21.503Z,36.10
2023-03-11T10:49:48.201Z,36.12
2023-03-11T10:52:15.107Z,36.25
2023-03-11T10:54:45.565Z,36.25
2023-03-11T10:57:23.311Z,36.33
2023-03-11T10:59:51.677Z,36.26
2023-03-11T11:02:24.881Z,36.20
2023-03-11T11:05:05.032Z,36.29
2023-03-11T11:07:34.296Z,36.25
2023-03-11T11:10:17.261Z,36.28
2023-03-11T11:12:54.188Z,36.19
2023-03-11T11:15:21.989Z,36.47
2023-03-11T11:17:48.946Z,36.56
2023-03-11T11:20:19.543Z,36.34
2023-03-11T11:22:52.160Z,36.43
2023-03-11T11:25:31.397Z,36.33
2023-03-11T11:27:59.768Z,36.33
2023-03-11T11:30:27.778Z,36.54
2023-03-11T11:32:54.623Z,36.30
2023-03-11T11:35:23.137Z,36.39
2023-03-11T11:37:52.573Z,36.47
2023-03-11T11:40:27.072Z,36.20
2023-03-11T11:42:59.457Z,36.68
2023-03-11T11:45:37.794Z,36.60
2023-03-11T11:48:12.099Z,36.50
2023-03-11T11:50:43.942Z,36.61
2023-03-11T11:53:23.489Z,36.56
2023-03-11T11:55:52.547Z,36.55
2023-03-11T11:58:21.590Z,36.67
2023-03-11T12:00:58.241Z,36.47
2023-03-11T12:03:44.209Z,36.65
2023-03-11T12:06:20.458Z,36.50
2023-03-11T12:08:56.243Z,36.47
2023-03-11T12:11:29.017Z,36.59
2023-03-11T12:14:09.027Z,36.67
2023-03-11T12:16:43.021Z,36.61
2023-03-11T12:19:20.076Z,36.64
2023-03-11T12:21:58.960Z,36.64
2023-03-11T12:24:45.432Z,36.72
2023-03-11T12:27:20.782Z,36.65
2023-03-11T12:29:54.568Z,36.53
2023-03-11T12:32:28.346Z,36.64
2023-03-11T12:34:54.913Z,36.67
2023-03-11T12:37:23.427Z,36.68
2023-03-11T12:39:49.980Z,36.89
2023-03-11T12:42:19.098Z,36.71
2023-03-11T12:44:46.679Z,36.70
2023-03-11T12:47:24.408Z,36.77
2023-03-11T12:49:52.754Z,36.76
2023-03-11T12:52:23.863Z,36.79
2023-03-11T12:55:15.136Z,36.75
2023-03-11T12:57:50.627Z,36.78
2023-03-11T13:00:26.716Z,36.82
2023-03-11T13:03:14.625Z,36.92
2023-03-11T13:05:51.737Z,36.90
2023-03-11T13:08:21.340Z,36.87
2023-03-11T13:10:49.387Z,36.91
2023-03-11T13:13:31.742Z,36.91
2023-03-11T13:16:18.492Z,36.93
2023-03-11T13:18:48.173Z,36.90
2023-03-11T13:21:39.526Z,36.83
2023-03-11T13:24:26.022Z,36.87
2023-03-11T13:27:04.412Z,36.97
2023-03-11T13:29:47.061Z,36.98
2023-03-11T13:32:26.883Z,36.95
2023-03-11T13:35:05.312Z,37.25
2023-03-11T13:37:43.588Z,36.99
2023-03-11T13:40:22.974Z,36.99
2023-03-11T13:42:51.146Z,37.26
2023-03-11T13:45:27.468Z,37.07
2023-03-11T13:47:58.874Z,37.11
2023-03-11T13:50:31.821Z,37.23
2023-03-11T13:53:02.227Z,37.12
2023-03-11T13:55:34.043Z,37.23
2023-03-11T13:58:00.725Z,37.22
2023-03-11T14:00:29.234Z,37.38
2023-03-11T14:02:57.875Z,37.39
2023-03-11T14:05:27.563Z,37.21
2023-03-11T14:07:54.277Z,37.47
2023-03-11T14:10:24.397Z,37.51
2023-03-11T14:12:51.413Z,37.41
2023-03-11T14:15:22.467Z,37.49
2023-03-11T14:17:51.209Z,37.39
2023-03-11T14:20:19.800Z,37.36
2023-03-11T14:22:49.586Z,37.63
2023-03-11T14:25:18.741Z,37.54
2023-03-11T14:27:50.583Z,37.50
2023-03-11T14:30:21.192Z,37.80
2023-03-11T14:32:56.736Z,37.69
2023-03-11T14:35:23.415Z,37.71
2023-03-11T14:37:51.258Z,37.45
2023-03-11T14:40:24.437Z,37.48
2023-03-11T14:42:52.508Z,37.69
2023-03-11T14:45:20.325Z,37.68
2023-03-11T14:47:53.167Z,37.71
2023-03-11T14:50:21.828Z,37.74
2023-03-11T14:52:54.999Z,37.79
2023-03-11T14:55:26.004Z,37.71
2023-03-11T14:57:56.840Z,37.82
2023-03-11T15:00:26.703Z,37.60
2023-03-11T15:03:01.679Z,38.11
2023-03-11T15:05:34.990Z,37.79
2023-03-11T15:08:04.735Z,37.89
2023-03-11T15:10:31.683Z,37.90
2023-03-11T15:13:10.393Z,37.83
2023-03-11T15:15:36.946Z,37.92
2023-03-11T15:18:03.724Z,38.09
2023-03-11T15:20:32.767Z,37.97
2023-03-11T15:23:01.664Z,38.26
2023-03-11T15:25:31.793Z,38.12
2023-03-11T15:27:58.297Z,38.03
2023-03-11T15:30:27.579Z,38.15
2023-03-11T15:32:54.808Z,38.12
2023-03-11T15:35:23.670Z,38.18
2023-03-11T15:37:51.984Z,38.36
2023-03-11T15:40:26.184Z,38.17
2023-03-11T15:43:20.614Z,38.14
2023-03-11T15:45:47.373Z,37.90
2023-03-11T15:48:13.987Z,38.35
2023-03-11T15:50:53.247Z,38.27
2023-03-11T15:53:21.175Z,38.29
2023-03-11T15:55:48.040Z,38.38
2023-03-11T15:58:17.182Z,38.38
2023-03-11T16:00:48.147Z,38.40
2023-03-11T16:03:14.891Z,38.37
2023-03-11T16:05:41.429Z,38.36
2023-03-11T16:08:08.295Z,38.41
2023-03-11T16:10:35.674Z,38.40
2023-03-11T16:13:02.185Z,38.33
2023-03-11T16:15:32.249Z,38.48
2023-03-11T16:18:00.207Z,38.58
2023-03-11T16:20:28.962Z,38.50
2023-03-11T16:22:57.928Z,38.57
2023-03-11T16:25:27.790Z,38.91
2023-03-11T16:27:55.948Z,38.70
2023-03-11T16:30:24.028Z,38.75
2023-03-11T16:32:52.014Z,38.62
2023-03-11T16:35:18.604Z,38.50
2023-03-11T16:37:45.225Z,38.60
2023-03-11T16:40:14.328Z,38.75
2023-03-11T16:42:41.298Z,38.83
2023-03-11T16:45:08.109Z,38.72
2023-03-11T16:47:34.741Z,38.84
2023-03-11T16:50:02.667Z,38.84
2023-03-11T16:52:29.493Z,38.76
2023-03-11T16:54:55.990Z,38.94
2023-03-11T16:57:22.538Z,38.84
2023-03-11T16:59:49.102Z,38.99
2023-03-11T17:02:15.658Z,38.76
2023-03-11T17:04:42.288Z,38.98
2023-03-11T17:07:10.404Z,38.94
2023-03-11T17:09:38.082Z,39.10
2023-03-11T17:12:05.327Z,39.07
2023-03-11T17:14:31.877Z,39.14
2023-03-11T17:16:58.620Z,39.10
2023-03-11T17:19:25.285Z,39.21
2023-03-11T17:21:51.830Z,39.01
2023-03-11T17:24:19.656Z,39.15
2023-03-11T17:26:46.175Z,39.18
2023-03-11T17:29:12.695Z,39.25
2023-03-11T17:31:39.340Z,39.18
2023-03-11T17:34:05.903Z,39.20
2023-03-11T17:36:32.541Z,39.22
2023-03-11T17:38:59.049Z,39.47
2023-03-11T17:41:26.947Z,39.54
2023-03-11T17:43:53.476Z,39.37
2023-03-11T17:46:20.963Z,39.41
2023-03-11T17:48:48.312Z,39.43
2023-03-11T17:51:16.803Z,39.38
2023-03-11T17:53:46.130Z,39.45
2023-03-11T17:56:13.794Z,39.50
2023-03-11T17:58:42.031Z,39.39
2023-03-11T18:01:12.225Z,39.21
2023-03-11T18:03:38.786Z,39.76
2023-03-11T18:06:06.589Z,39.71
2023-03-11T18:08:34.277Z,39.63
2023-03-11T18:11:02.694Z,39.58
2023-03-11T18:13:29.675Z,39.62
2023-03-11T18:15:59.206Z,39.46
2023-03-11T18:18:25.904Z,39.73
2023-03-11T18:20:52.449Z,39.25
2023-03-11T18:23:19.245Z,39.86
2023-03-11T18:25:50.865Z,39.67
2023-03-11T18:28:17.429Z,39.74
2023-03-11T18:30:43.963Z,40.16
2023-03-11T18:33:11.936Z,39.94
2023-03-11T18:35:38.497Z,40.08
2023-03-11T18:38:05.074Z,39.89
2023-03-11T18:40:31.687Z,40.05
2023-03-11T18:42:58.150Z,40.19
2023-03-11T18:45:24.673Z,40.44
2023-03-11T18:47:51.135Z,40.31
2023-03-11T18:50:18.980Z,40.27
2023-03-11T18:52:45.483Z,40.46
2023-03-11T18:55:12.149Z,40.57
2023-03-11T18:57:38.724Z,40.69
2023-03-11T19:00:06.005Z,40.81
2023-03-11T19:02:32.546Z,40.95
2023-03-11T19:04:59.068Z,40.94
2023-03-11T19:07:28.098Z,41.02
2023-03-11T19:09:54.634Z,40.68
2023-03-11T19:12:21.186Z,40.91
2023-03-11T19:14:47.784Z,41.02
2023-03-11T19:17:14.438Z,41.05
2023-03-11T19:19:40.975Z,41.15
2023-03-11T19:22:07.472Z,41.10
2023-03-11T19:24:35.336Z,41.31
2023-03-11T19:27:01.952Z,41.69
2023-03-11T19:29:28.449Z,41.76
2023-03-11T19:31:54.976Z,41.61
2023-03-11T19:34:21.508Z,41.44
2023-03-11T19:36:48.076Z,41.62
2023-03-11T19:39:14.574Z,41.72
2023-03-11T19:41:42.418Z,41.77
2023-03-11T19:44:09.008Z,41.93
2023-03-11T19:46:35.571Z,41.69
2023-03-11T19:49:03.135Z,42.10
2023-03-11T19:51:38.770Z,42.06
2023-03-11T19:54:09.825Z,41.88
2023-03-11T19:56:36.323Z,42.23
2023-03-11T19:59:04.405Z,42.68
2023-03-11T20:01:30.932Z,42.42
2023-03-11T20:03:57.629Z,42.39
2023-03-11T20:06:24.283Z,42.45
2023-03-11T20:08:51.046Z,42.48
2023-03-11T20:11:17.608Z,42.32
2023-03-11T20:13:44.239Z,42.15
2023-03-11T20:16:14.073Z,42.57
2023-03-11T20:18:41.515Z,41.96
2023-03-11T20:21:09.904Z,42.62
2023-03-11T20:23:37.446Z,42.27
2023-03-11T20:26:06.428Z,42.64
2023-03-11T20:28:33.019Z,42.73
2023-03-11T20:30:59.838Z,42.48
2023-03-11T20:33:27.712Z,42.39
2023-03-11T20:36:03.504Z,42.12
2023-03-11T20:38:30.138Z,42.45
2023-03-11T20:40:57.015Z,42.51
2023-03-11T20:43:23.593Z,42.59
2023-03-11T20:45:50.135Z,42.44
2023-03-11T20:48:16.851Z,42.57
2023-03-11T20:50:44.705Z,42.64
2023-03-11T20:53:11.179Z,42.85
2023-03-11T20:55:38.527Z,43.03
2023-03-11T20:58:05.094Z,42.92
2023-03-11T21:00:31.734Z,42.88
2023-03-11T21:02:58.401Z,43.12
2023-03-11T21:05:25.405Z,42.96
2023-03-11T21:07:53.300Z,42.81
2023-03-11T21:10:20.082Z,42.99
2023-03-11T21:12:46.581Z,43.12
2023-03-11T21:15:13.124Z,43.05
2023-03-11T21:17:39.776Z,43.17
2023-03-11T21:20:07.030Z,42.72
2023-03-11T21:22:33.936Z,43.07
2023-03-11T21:25:01.822Z,43.25
2023-03-11T21:27:28.982Z,43.14
2023-03-11T21:29:56.526Z,43.27
2023-03-11T21:32:24.162Z,43.11
2023-03-11T21:34:51.121Z,43.11
2023-03-11T21:37:17.688Z,43.25
2023-03-11T21:39:44.311Z,43.18
2023-03-11T21:42:12.374Z,43.38
2023-03-11T21:44:38.964Z,43.41
2023-03-11T21:47:05.664Z,43.28
2023-03-11T21:49:32.290Z,43.19
2023-03-11T21:52:02.008Z,43.14
2023-03-11T21:54:28.951Z,43.61
2023-03-11T21:56:55.631Z,43.63
2023-03-11T21:59:25.592Z,43.86
2023-03-11T22:01:52.923Z,43.50
2023-03-11T22:04:19.652Z,43.56
2023-03-11T22:06:46.498Z,43.57
2023-03-11T22:09:13.121Z,43.55
2023-03-11T22:11:39.696Z,43.40
2023-03-11T22:14:06.388Z,43.56
2023-03-11T22:16:34.513Z,43.50
2023-03-11T22:19:01.456Z,43.49
2023-03-11T22:21:28.037Z,43.49
2023-03-11T22:23:54.753Z,43.75
2023-03-11T22:26:21.373Z,43.64
2023-03-11T22:28:47.911Z,43.61
2023-03-11T22:31:15.675Z,43.64
2023-03-11T22:33:43.718Z,43.64
2023-03-11T22:36:10.279Z,43.37
2023-03-11T22:38:37.080Z,43.33
2023-03-11T22:41:05.303Z,43.56
2023-03-11T22:43:31.775Z,43.25
2023-03-11T22:45:59.796Z,43.37
2023-03-11T22:48:27.976Z,43.42
2023-03-11T22:50:56.120Z,43.25
2023-03-11T22:53:22.637Z,43.31
2023-03-11T22:55:49.405Z,43.76
2023-03-11T22:58:15.887Z,43.46
2023-03-11T23:00:42.644Z,43.42
2023-03-11T23:03:09.891Z,43.51
2023-03-11T23:05:36.469Z,43.28
2023-03-11T23:08:04.444Z,43.21
2023-03-11T23:10:31.091Z,43.58
2023-03-11T23:12:57.591Z,43.46
2023-03-11T23:15:24.108Z,43.59
2023-03-11T23:17:50.630Z,43.42
2023-03-11T23:20:17.622Z,43.35
2023-03-11T23:22:44.241Z,43.49
2023-03-11T23:25:15.264Z,43.42
2023-03-11T23:27:43.065Z,43.52
2023-03-11T23:30:11.866Z,43.37
2023-03-11T23:32:38.921Z,43.51
2023-03-11T23:35:06.687Z,43.37
2023-03-11T23:37:33.279Z,43.62
2023-03-11T23:39:59.904Z,43.51
2023-03-11T23:42:27.946Z,43.53
2023-03-11T23:44:54.520Z,43.41
2023-03-11T23:47:20.985Z,43.46
2023-03-11T23:49:47.529Z,43.54
2023-03-11T23:52:14.111Z,43.51
2023-03-11T23:54:40.631Z,43.70
2023-03-11T23:57:07.303Z,43.69
2023-03-11T23:59:35.112Z,43.49
